Portada
METAR-TAF:

METAR-TAF

Aeropuertos :

Tottori, Japón

latitud: 35-32N, longitud: 134-10E, altitud: 15 m

Observación

El informe se hizo hace 39 minutos, a las 01:00 UTC
Viento 5 kt del noreste
Temperatura 12°C
Humedad 76%
Presión 1018 hPa
Visibilidad 10 km o más
Escasas nubes a una altura de 3000 ft
Nubes dispersas a una altura de 4500 ft
Cielo nuboso a una altura de 6000 ft

METAR: RJOR 310100Z 04005KT 9999 FEW030 SCT045 BKN060 12/08 Q1018

Hora: 10:39 (01:39 UTC)


TAF: falta

Observaciones y pronósticos meteorológicos de más de 4000 aeropuertos (mensajes METAR y TAF).

Los puntos amarillos y rojos representan las estaciones disponibles.

Ponga el ratón en el punto deseado para ver el nombre de la estación.

Haga clic para ver las observaciones y los pronósticos meteorológicos.

Para cambiar el mapa : haga clic en los botones verdes con una cruz de color negro para hacer un zoom, en el botón verde con un guión para alejar o en las flechas verdes para mapas adyacentes.


METAR-TAF: